createdAt,value
2024-05-09T00:00:36.454Z,59.34
2024-05-09T00:03:30.540Z,57.89
2024-05-09T00:06:02.007Z,58.50
2024-05-09T00:08:32.913Z,58.22
2024-05-09T00:11:04.342Z,58.16
2024-05-09T00:13:35.224Z,60.13
2024-05-09T00:16:09.656Z,60.66
2024-05-09T00:18:40.456Z,59.95
2024-05-09T00:21:12.839Z,61.34
2024-05-09T00:23:44.238Z,60.87
2024-05-09T00:26:19.149Z,60.92
2024-05-09T00:28:50.000Z,60.76
2024-05-09T00:31:23.855Z,59.96
2024-05-09T00:33:54.761Z,59.37
2024-05-09T00:36:25.939Z,59.06
2024-05-09T00:38:56.675Z,58.98
2024-05-09T00:41:27.829Z,59.44
2024-05-09T00:43:58.568Z,59.90
2024-05-09T00:46:32.537Z,60.45
2024-05-09T00:49:05.454Z,60.17
2024-05-09T00:51:36.872Z,60.95
2024-05-09T00:54:08.561Z,60.30
2024-05-09T00:56:39.850Z,60.66
2024-05-09T00:59:11.331Z,60.41
2024-05-09T01:01:47.096Z,59.99
2024-05-09T01:04:18.138Z,60.03
2024-05-09T01:06:50.509Z,59.99
2024-05-09T01:09:21.331Z,60.08
2024-05-09T01:11:52.644Z,59.93
2024-05-09T01:14:23.644Z,59.55
2024-05-09T01:16:57.955Z,59.95
2024-05-09T01:19:32.821Z,60.38
2024-05-09T01:22:04.631Z,60.71
2024-05-09T01:24:38.040Z,60.74
2024-05-09T01:27:09.141Z,60.79
2024-05-09T01:32:10.942Z,60.37
2024-05-09T01:34:41.723Z,60.95
2024-05-09T01:37:12.927Z,60.49
2024-05-09T01:39:46.481Z,59.88
2024-05-09T01:42:18.318Z,60.34
2024-05-09T01:44:49.057Z,60.10
2024-05-09T01:47:20.336Z,59.78
2024-05-09T01:49:51.236Z,59.62
2024-05-09T01:52:22.567Z,58.75
2024-05-09T01:54:55.921Z,59.15
2024-05-09T01:57:27.044Z,59.64
2024-05-09T01:59:58.695Z,59.67
2024-05-09T02:02:30.007Z,60.16
2024-05-09T02:05:00.912Z,60.84
2024-05-09T02:07:32.171Z,62.36
2024-05-09T02:10:13.624Z,61.17
2024-05-09T02:12:47.818Z,60.91
2024-05-09T02:15:19.060Z,60.80
2024-05-09T02:17:50.703Z,60.54
2024-05-09T02:22:57.515Z,60.13
2024-05-09T02:25:31.003Z,59.87
2024-05-09T02:28:02.241Z,59.02
2024-05-09T02:30:39.815Z,59.12
2024-05-09T02:33:14.541Z,58.67
2024-05-09T02:35:44.291Z,58.29
2024-05-09T02:38:16.074Z,57.56
2024-05-09T02:40:46.894Z,57.87
2024-05-09T02:43:18.068Z,56.76
2024-05-09T02:45:46.058Z,56.67
2024-05-09T02:48:17.329Z,56.51
2024-05-09T02:50:45.523Z,56.59
2024-05-09T02:53:17.045Z,57.16
2024-05-09T02:55:47.855Z,57.28
2024-05-09T02:58:19.030Z,57.23
2024-05-09T03:00:47.231Z,58.49
2024-05-09T03:03:18.775Z,58.70
2024-05-09T03:05:47.743Z,58.19
2024-05-09T03:08:19.204Z,57.95
2024-05-09T03:10:50.012Z,57.19
2024-05-09T03:13:21.180Z,57.19
2024-05-09T03:15:49.233Z,57.13
2024-05-09T03:18:20.448Z,56.81
2024-05-09T03:20:48.610Z,56.23
2024-05-09T03:23:19.797Z,55.33
2024-05-09T03:25:50.569Z,55.80
2024-05-09T03:28:21.767Z,54.95
2024-05-09T03:30:50.055Z,55.00
2024-05-09T03:33:21.823Z,55.04
2024-05-09T03:35:50.231Z,54.43
2024-05-09T03:38:21.540Z,53.86
2024-05-09T03:40:55.088Z,53.65
2024-05-09T03:43:26.401Z,53.71
2024-05-09T03:45:57.141Z,54.12
2024-05-09T03:48:25.769Z,54.42
2024-05-09T03:50:56.754Z,53.88
2024-05-09T03:53:25.533Z,53.99
2024-05-09T03:55:59.596Z,54.45
2024-05-09T03:58:28.059Z,54.00
2024-05-09T04:00:58.916Z,53.91
2024-05-09T04:03:27.764Z,54.04
2024-05-09T04:05:59.096Z,54.73
2024-05-09T04:08:27.639Z,55.39
2024-05-09T04:11:01.215Z,55.29
2024-05-09T04:13:29.711Z,55.22
2024-05-09T04:16:00.413Z,55.52
2024-05-09T04:18:28.995Z,54.26
2024-05-09T04:20:59.856Z,54.73
2024-05-09T04:23:28.364Z,53.78
2024-05-09T04:26:04.395Z,54.58
2024-05-09T04:28:32.955Z,54.01
2024-05-09T04:31:03.695Z,53.92
2024-05-09T04:33:32.919Z,54.28
2024-05-09T04:36:03.719Z,53.62
2024-05-09T04:38:32.299Z,53.80
2024-05-09T04:41:05.769Z,53.81
2024-05-09T04:43:35.489Z,53.29
2024-05-09T04:46:06.223Z,53.26
2024-05-09T04:48:34.897Z,53.71
2024-05-09T04:51:05.942Z,53.53
2024-05-09T04:53:34.578Z,54.19
2024-05-09T04:56:09.428Z,52.98
2024-05-09T04:58:37.974Z,53.13
2024-05-09T05:01:08.730Z,52.26
2024-05-09T05:03:37.435Z,52.40
2024-05-09T05:06:08.755Z,53.70
2024-05-09T05:08:37.472Z,53.29
2024-05-09T05:11:11.099Z,53.22
2024-05-09T05:13:41.519Z,52.66
2024-05-09T05:16:12.579Z,52.55
2024-05-09T05:18:41.282Z,53.00
2024-05-09T05:21:12.202Z,52.95
2024-05-09T05:23:41.289Z,52.30
2024-05-09T05:26:20.305Z,50.72
2024-05-09T05:28:51.693Z,50.97
2024-05-09T05:31:20.283Z,50.38
2024-05-09T05:33:52.852Z,50.90
2024-05-09T05:36:21.028Z,49.06
2024-05-09T05:38:52.364Z,49.72
2024-05-09T05:41:23.251Z,48.56
2024-05-09T05:43:54.470Z,49.13
2024-05-09T05:46:22.505Z,48.92
2024-05-09T05:48:53.836Z,48.38
2024-05-09T05:51:22.250Z,49.02
2024-05-09T05:53:55.226Z,48.56
2024-05-09T05:56:27.710Z,48.35
2024-05-09T05:58:59.121Z,48.95
2024-05-09T06:01:27.296Z,48.78
2024-05-09T06:03:58.760Z,48.40
2024-05-09T06:06:27.304Z,48.46
2024-05-09T06:08:58.413Z,49.12
2024-05-09T06:11:29.319Z,48.61
2024-05-09T06:14:01.509Z,47.72
2024-05-09T06:16:30.013Z,47.96
2024-05-09T06:19:01.257Z,47.34
2024-05-09T06:21:29.408Z,46.62
2024-05-09T06:24:02.564Z,45.97
2024-05-09T06:26:35.300Z,45.82
2024-05-09T06:29:06.582Z,45.35
2024-05-09T06:31:40.011Z,45.22
2024-05-09T06:34:11.300Z,44.80
2024-05-09T06:36:39.730Z,44.93
2024-05-09T06:39:11.307Z,44.84
2024-05-09T06:41:42.252Z,44.79
2024-05-09T06:44:13.588Z,44.97
2024-05-09T06:46:43.055Z,44.33
2024-05-09T06:49:14.717Z,43.88
2024-05-09T06:51:42.995Z,43.51
2024-05-09T06:54:14.173Z,43.67
2024-05-09T06:56:44.952Z,42.91
2024-05-09T06:59:16.314Z,42.68
2024-05-09T07:01:44.749Z,42.40
2024-05-09T07:04:16.179Z,41.36
2024-05-09T07:06:44.339Z,41.46
2024-05-09T07:09:15.517Z,41.77
2024-05-09T07:11:46.394Z,41.53
2024-05-09T07:14:17.651Z,40.75
2024-05-09T07:16:45.752Z,40.80
2024-05-09T07:19:17.240Z,41.55
2024-05-09T07:21:45.351Z,41.53
2024-05-09T07:24:16.446Z,41.66
2024-05-09T07:26:47.263Z,42.48
2024-05-09T07:29:18.591Z,41.04
2024-05-09T07:31:46.931Z,41.23
2024-05-09T07:34:18.326Z,42.20
2024-05-09T07:36:46.774Z,41.15
2024-05-09T07:39:18.068Z,41.63
2024-05-09T07:41:48.850Z,41.84
2024-05-09T07:44:20.252Z,43.15
2024-05-09T07:47:48.703Z,43.20
2024-05-09T07:53:29.237Z,43.79
2024-05-09T07:55:01.679Z,42.78
2024-05-09T07:57:32.760Z,43.15
2024-05-09T08:00:04.583Z,43.35
2024-05-09T08:02:33.166Z,43.35
2024-05-09T08:05:05.331Z,43.99
2024-05-09T08:07:35.313Z,44.23
2024-05-09T08:10:10.548Z,43.64
2024-05-09T08:12:41.528Z,43.48
2024-05-09T08:15:12.754Z,43.73
2024-05-09T08:17:40.893Z,43.56
2024-05-09T08:20:15.925Z,43.24
2024-05-09T08:22:47.484Z,43.85
2024-05-09T08:25:18.668Z,42.57
2024-05-09T08:27:49.442Z,43.87
2024-05-09T08:30:25.434Z,43.17
2024-05-09T08:33:00.833Z,42.30
2024-05-09T08:35:32.308Z,41.60
2024-05-09T08:38:00.434Z,41.06
2024-05-09T08:40:35.690Z,40.31
2024-05-09T08:43:11.650Z,40.11
2024-05-09T08:45:46.140Z,39.52
2024-05-09T08:48:16.108Z,39.96
2024-05-09T08:50:47.960Z,39.78
2024-05-09T08:53:16.086Z,39.60
2024-05-09T08:55:49.502Z,38.57
2024-05-09T08:58:20.610Z,38.38
2024-05-09T09:00:51.868Z,37.24
2024-05-09T09:03:24.506Z,37.38
2024-05-09T09:06:01.533Z,36.70
2024-05-09T09:08:29.725Z,36.46
2024-05-09T09:11:02.132Z,37.33
2024-05-09T09:13:33.014Z,37.24
2024-05-09T09:16:04.269Z,35.35
2024-05-09T09:18:33.220Z,36.41
2024-05-09T09:21:05.357Z,35.52
2024-05-09T09:23:33.958Z,35.58
2024-05-09T09:26:05.370Z,35.67
2024-05-09T09:28:40.716Z,35.66
2024-05-09T09:31:11.931Z,35.45
2024-05-09T09:33:42.741Z,36.19
2024-05-09T09:36:14.508Z,36.20
2024-05-09T09:38:43.500Z,35.21
2024-05-09T09:41:16.322Z,35.51
2024-05-09T09:43:48.106Z,34.19
2024-05-09T09:46:20.888Z,34.31
2024-05-09T09:48:49.620Z,34.15
2024-05-09T09:51:21.641Z,35.85
2024-05-09T09:53:52.827Z,35.76
2024-05-09T09:56:24.788Z,36.08
2024-05-09T09:58:58.619Z,36.48
2024-05-09T10:01:29.878Z,36.88
2024-05-09T10:03:58.416Z,35.16
2024-05-09T10:06:31.865Z,35.95
2024-05-09T10:09:00.590Z,34.87
2024-05-09T10:11:39.809Z,35.17
2024-05-09T10:14:20.976Z,34.52
2024-05-09T10:16:52.866Z,34.33
2024-05-09T10:19:25.293Z,34.50
2024-05-09T10:22:04.608Z,32.92
2024-05-09T10:24:49.124Z,32.43
2024-05-09T10:27:28.989Z,32.28
2024-05-09T10:30:00.684Z,33.40
2024-05-09T10:32:40.070Z,32.94
2024-05-09T10:35:09.646Z,32.38
2024-05-09T10:37:41.811Z,33.00
2024-05-09T10:40:23.363Z,30.57
2024-05-09T10:43:05.685Z,30.09
2024-05-09T10:45:38.585Z,30.88
2024-05-09T10:48:11.803Z,30.74
2024-05-09T10:50:43.859Z,30.80
2024-05-09T10:53:15.116Z,30.54
2024-05-09T10:55:43.262Z,31.09
2024-05-09T10:58:20.655Z,29.74
2024-05-09T11:00:51.871Z,30.79
2024-05-09T11:03:24.318Z,30.77
2024-05-09T11:05:53.282Z,31.24
2024-05-09T11:08:25.866Z,30.94
2024-05-09T11:10:54.886Z,31.74
2024-05-09T11:13:32.740Z,31.46
2024-05-09T11:16:04.678Z,30.89
2024-05-09T11:18:38.859Z,31.50
2024-05-09T11:21:13.624Z,30.12
2024-05-09T11:23:45.289Z,33.30
2024-05-09T11:26:15.452Z,34.51
2024-05-09T11:28:47.439Z,34.95
2024-05-09T11:31:18.431Z,34.11
2024-05-09T11:33:49.815Z,35.05
2024-05-09T11:36:18.011Z,36.03
2024-05-09T11:38:49.311Z,35.06
2024-05-09T11:41:18.538Z,35.53
2024-05-09T11:43:49.974Z,35.30
2024-05-09T11:46:20.942Z,36.04
2024-05-09T11:48:52.360Z,35.93
2024-05-09T11:51:20.541Z,35.94
2024-05-09T11:53:51.730Z,35.65
2024-05-09T11:56:19.826Z,35.02
2024-05-09T11:58:51.033Z,35.63
2024-05-09T12:01:25.106Z,35.80
2024-05-09T12:03:57.705Z,35.64
2024-05-09T12:06:26.280Z,36.01
2024-05-09T12:08:57.891Z,36.13
2024-05-09T12:11:26.102Z,36.03
2024-05-09T12:13:57.236Z,36.22
2024-05-09T12:16:28.379Z,36.51
2024-05-09T12:18:59.815Z,36.08
2024-05-09T12:21:27.975Z,36.39
2024-05-09T12:23:59.536Z,35.08
2024-05-09T12:26:28.548Z,36.49
2024-05-09T12:28:59.689Z,35.62
2024-05-09T12:31:30.673Z,36.75
2024-05-09T12:34:02.673Z,36.79
2024-05-09T12:36:31.529Z,36.82
2024-05-09T12:39:03.012Z,36.97
2024-05-09T12:41:31.116Z,37.62
2024-05-09T12:44:02.206Z,37.05
2024-05-09T12:46:33.217Z,36.85
2024-05-09T12:49:04.709Z,36.96
2024-05-09T12:51:33.156Z,36.97
2024-05-09T12:54:04.531Z,37.37
2024-05-09T12:56:33.683Z,37.75
2024-05-09T12:59:04.973Z,37.06
2024-05-09T13:01:35.776Z,37.29
2024-05-09T13:04:07.604Z,38.13
2024-05-09T13:06:35.940Z,37.98
2024-05-09T13:09:07.502Z,37.10
2024-05-09T13:11:35.687Z,36.72
2024-05-09T13:14:06.954Z,36.68
2024-05-09T13:16:37.787Z,36.95
2024-05-09T13:19:09.239Z,35.81
2024-05-09T13:21:37.450Z,36.22
2024-05-09T13:24:09.255Z,35.32
2024-05-09T13:26:37.313Z,35.37
2024-05-09T13:29:08.630Z,35.85
2024-05-09T13:31:39.499Z,35.55
2024-05-09T13:34:10.676Z,35.11
2024-05-09T13:36:39.451Z,35.91
2024-05-09T13:39:10.706Z,34.59
2024-05-09T13:41:38.822Z,35.08
2024-05-09T13:44:10.060Z,36.06
2024-05-09T13:46:40.819Z,35.28
2024-05-09T13:49:16.909Z,34.73
2024-05-09T13:51:45.313Z,34.86
2024-05-09T13:54:18.749Z,36.20
2024-05-09T13:56:48.274Z,34.83
2024-05-09T13:59:19.482Z,35.09
2024-05-09T14:01:50.510Z,35.53
2024-05-09T14:04:21.825Z,34.20
2024-05-09T14:06:50.429Z,35.32
2024-05-09T14:09:21.702Z,34.76
2024-05-09T14:11:49.763Z,34.56
2024-05-09T14:14:21.100Z,35.00
2024-05-09T14:16:51.990Z,35.48
2024-05-09T14:19:23.238Z,34.77
2024-05-09T14:21:51.582Z,35.60
2024-05-09T14:24:22.746Z,36.08
2024-05-09T14:26:50.979Z,35.67
2024-05-09T14:29:22.112Z,36.31
2024-05-09T14:31:52.920Z,34.74
2024-05-09T14:34:24.501Z,34.90
2024-05-09T14:36:53.481Z,35.75
2024-05-09T14:39:24.730Z,35.51
2024-05-09T14:41:52.873Z,34.72
2024-05-09T14:44:24.034Z,36.05
2024-05-09T14:46:55.091Z,34.88
2024-05-09T14:49:26.369Z,35.57
2024-05-09T14:51:54.509Z,35.46
2024-05-09T14:54:25.813Z,34.88
2024-05-09T14:56:55.222Z,35.86
2024-05-09T14:59:26.388Z,34.90
2024-05-09T15:01:57.381Z,35.33
2024-05-09T15:04:28.838Z,35.02
2024-05-09T15:06:57.224Z,36.11
2024-05-09T15:09:28.598Z,36.02
2024-05-09T15:11:56.736Z,36.29
2024-05-09T15:14:27.845Z,35.95
2024-05-09T15:16:58.598Z,36.37
2024-05-09T15:19:31.025Z,36.37
2024-05-09T15:21:59.340Z,35.58
2024-05-09T15:24:30.541Z,37.02
2024-05-09T15:26:58.661Z,36.95
2024-05-09T15:29:29.843Z,36.35
2024-05-09T15:32:00.596Z,36.27
2024-05-09T15:34:32.364Z,36.76
2024-05-09T15:37:01.077Z,37.55
2024-05-09T15:39:32.340Z,36.78
2024-05-09T15:42:00.389Z,36.47
2024-05-09T15:44:31.538Z,37.18
2024-05-09T15:47:02.320Z,37.58
2024-05-09T15:49:33.668Z,37.56
2024-05-09T15:52:01.894Z,37.08
2024-05-09T15:54:33.168Z,36.94
2024-05-09T15:57:01.286Z,35.96
2024-05-09T15:59:32.454Z,36.78
2024-05-09T16:02:03.292Z,36.70
2024-05-09T16:04:34.773Z,36.16
2024-05-09T16:07:02.887Z,36.46
2024-05-09T16:09:34.240Z,36.38
2024-05-09T16:12:02.330Z,36.88
2024-05-09T16:14:33.489Z,36.60
2024-05-09T16:17:04.632Z,35.88
2024-05-09T16:19:35.889Z,37.41
2024-05-09T16:22:04.184Z,37.03
2024-05-09T16:24:35.401Z,38.40
2024-05-09T16:27:03.919Z,38.01
2024-05-09T16:29:35.053Z,38.45
2024-05-09T16:32:06.662Z,38.90
2024-05-09T16:34:37.906Z,38.33
2024-05-09T16:37:10.310Z,38.45
2024-05-09T16:39:41.595Z,38.76
2024-05-09T16:42:09.817Z,38.58
2024-05-09T16:44:41.042Z,38.81
2024-05-09T16:47:11.899Z,38.75
2024-05-09T16:49:47.078Z,39.25
2024-05-09T16:52:15.794Z,39.98
2024-05-09T16:54:47.256Z,40.20
2024-05-09T16:57:16.104Z,40.53
2024-05-09T16:59:47.438Z,41.32
2024-05-09T17:02:18.462Z,40.90
2024-05-09T17:04:49.905Z,41.26
2024-05-09T17:07:18.409Z,40.94
2024-05-09T17:09:49.754Z,40.98
2024-05-09T17:12:20.547Z,41.44
2024-05-09T17:14:51.952Z,40.53
2024-05-09T17:17:25.924Z,41.25
2024-05-09T17:19:57.166Z,40.76
2024-05-09T17:22:25.611Z,41.40
2024-05-09T17:24:56.974Z,41.68
2024-05-09T17:27:25.131Z,41.49
2024-05-09T17:29:56.362Z,41.73
2024-05-09T17:32:27.534Z,41.72
2024-05-09T17:34:59.023Z,42.63
2024-05-09T17:37:27.378Z,41.86
2024-05-09T17:39:58.584Z,43.66
2024-05-09T17:42:26.642Z,42.16
2024-05-09T17:44:57.867Z,42.51
2024-05-09T17:47:28.792Z,42.77
2024-05-09T17:50:00.052Z,42.90
2024-05-09T17:52:28.153Z,42.60
2024-05-09T17:54:59.396Z,42.86
2024-05-09T17:57:27.761Z,43.34
2024-05-09T17:59:58.934Z,43.78
2024-05-09T18:02:29.816Z,42.94
2024-05-09T18:05:01.945Z,42.85
2024-05-09T18:07:30.590Z,43.83
2024-05-09T18:10:01.956Z,43.71
2024-05-09T18:12:30.299Z,43.33
2024-05-09T18:15:02.179Z,42.67
2024-05-09T18:17:33.686Z,44.04
2024-05-09T18:20:05.666Z,43.83
2024-05-09T18:22:33.917Z,43.16
2024-05-09T18:25:04.993Z,43.50
2024-05-09T18:27:33.211Z,43.97
2024-05-09T18:30:07.373Z,43.49
2024-05-09T18:32:40.314Z,44.91
2024-05-09T18:35:11.614Z,44.62
2024-05-09T18:37:40.177Z,44.41
2024-05-09T18:40:20.905Z,44.50
2024-05-09T18:42:55.903Z,43.74
2024-05-09T18:45:27.074Z,44.64
2024-05-09T18:47:58.420Z,44.36
2024-05-09T18:50:35.614Z,44.69
2024-05-09T18:53:06.834Z,45.00
2024-05-09T18:55:38.060Z,44.61
2024-05-09T18:58:06.509Z,45.26
2024-05-09T19:00:40.276Z,45.17
2024-05-09T19:03:14.796Z,45.77
2024-05-09T19:05:47.392Z,45.01
2024-05-09T19:08:15.858Z,45.40
2024-05-09T19:10:48.192Z,44.64
2024-05-09T19:13:16.761Z,44.79
2024-05-09T19:15:48.035Z,45.28
2024-05-09T19:18:19.110Z,44.88
2024-05-09T19:20:50.417Z,44.38
2024-05-09T19:23:18.620Z,44.70
2024-05-09T19:25:49.813Z,44.48
2024-05-09T19:28:18.070Z,44.61
2024-05-09T19:30:49.340Z,45.66
2024-05-09T19:33:20.155Z,45.55
2024-05-09T19:35:51.335Z,45.33
2024-05-09T19:38:19.695Z,44.94
2024-05-09T19:40:50.875Z,45.61
2024-05-09T19:43:19.167Z,45.37
2024-05-09T19:45:50.537Z,46.05
2024-05-09T19:48:21.797Z,46.11
2024-05-09T19:50:53.486Z,46.00
2024-05-09T19:53:22.054Z,46.19
2024-05-09T19:55:53.169Z,46.63
2024-05-09T19:58:21.418Z,46.24
2024-05-09T20:00:52.763Z,46.22
2024-05-09T20:03:23.654Z,46.88
2024-05-09T20:05:55.271Z,46.44
2024-05-09T20:08:23.426Z,46.69
2024-05-09T20:10:54.786Z,46.53
2024-05-09T20:13:23.083Z,47.12
2024-05-09T20:15:54.522Z,46.70
2024-05-09T20:18:28.271Z,46.67
2024-05-09T20:20:56.932Z,46.33
2024-05-09T20:23:27.820Z,46.79
2024-05-09T20:25:56.274Z,46.69
2024-05-09T20:28:27.388Z,47.12
2024-05-09T20:30:56.093Z,47.27
2024-05-09T20:33:31.059Z,47.10
2024-05-09T20:36:01.862Z,47.00
2024-05-09T20:38:33.110Z,46.97
2024-05-09T20:41:02.247Z,46.41
2024-05-09T20:43:33.055Z,46.99
2024-05-09T20:46:01.776Z,47.53
2024-05-09T20:48:35.451Z,47.61
2024-05-09T20:51:04.274Z,47.83
2024-05-09T20:53:34.972Z,47.86
2024-05-09T20:56:03.533Z,47.65
2024-05-09T20:58:34.311Z,47.11
2024-05-09T21:01:03.049Z,47.37
2024-05-09T21:06:06.683Z,47.41
2024-05-09T21:08:37.492Z,47.51
2024-05-09T21:11:06.932Z,47.01
2024-05-09T21:13:38.073Z,47.40
2024-05-09T21:16:07.669Z,47.27
2024-05-09T21:18:41.321Z,47.43
2024-05-09T21:21:10.069Z,47.84
2024-05-09T21:23:41.021Z,48.54
2024-05-09T21:26:09.498Z,47.84
2024-05-09T21:28:40.395Z,48.34
2024-05-09T21:31:09.485Z,49.29
2024-05-09T21:33:43.182Z,49.66
2024-05-09T21:36:11.781Z,48.74
2024-05-09T21:38:43.484Z,48.67
2024-05-09T21:41:11.953Z,48.91
2024-05-09T21:43:42.722Z,48.91
2024-05-09T21:46:11.201Z,48.49
2024-05-09T21:48:44.720Z,49.05
2024-05-09T21:51:16.475Z,49.71
2024-05-09T21:53:47.322Z,50.14
2024-05-09T21:56:15.912Z,50.03
2024-05-09T21:58:46.663Z,50.26
2024-05-09T22:01:15.188Z,50.18
2024-05-09T22:03:49.047Z,49.91
2024-05-09T22:06:17.830Z,50.78
2024-05-09T22:08:48.573Z,51.09
2024-05-09T22:11:17.213Z,51.04
2024-05-09T22:13:48.059Z,51.63
2024-05-09T22:16:16.579Z,51.38
2024-05-09T22:18:50.269Z,52.17
2024-05-09T22:21:19.041Z,50.79
2024-05-09T22:23:49.791Z,51.83
2024-05-09T22:26:18.281Z,52.32
2024-05-09T22:28:49.023Z,51.45
2024-05-09T22:31:17.590Z,51.83
2024-05-09T22:33:51.302Z,50.90
2024-05-09T22:36:19.871Z,51.46
2024-05-09T22:38:50.565Z,50.99
2024-05-09T22:41:19.092Z,51.03
2024-05-09T22:43:49.843Z,50.38
2024-05-09T22:46:18.418Z,49.55
2024-05-09T22:48:51.975Z,50.50
2024-05-09T22:51:20.547Z,49.99
2024-05-09T22:53:51.369Z,50.48
2024-05-09T22:56:27.354Z,49.84
2024-05-09T22:58:58.233Z,50.33
2024-05-09T23:01:27.484Z,50.62
2024-05-09T23:04:01.287Z,50.28
2024-05-09T23:06:31.860Z,50.14
2024-05-09T23:09:02.727Z,50.47
2024-05-09T23:11:31.453Z,50.35
2024-05-09T23:14:02.245Z,50.18
2024-05-09T23:16:30.767Z,50.63
2024-05-09T23:19:04.368Z,50.12
2024-05-09T23:21:33.270Z,50.06
2024-05-09T23:24:03.992Z,50.56
2024-05-09T23:26:32.757Z,49.69
2024-05-09T23:29:03.793Z,49.57
2024-05-09T23:31:32.391Z,49.94
2024-05-09T23:34:05.951Z,50.14
2024-05-09T23:36:34.588Z,49.55
2024-05-09T23:39:05.347Z,49.75
2024-05-09T23:41:33.797Z,49.50
2024-05-09T23:44:04.494Z,48.79
2024-05-09T23:46:32.992Z,48.32
2024-05-09T23:49:06.576Z,48.57
2024-05-09T23:51:35.276Z,48.83
2024-05-09T23:54:08.561Z,49.19
2024-05-09T23:56:37.092Z,48.44
2024-05-09T23:59:07.875Z,47.94
